sensor_id;sensor_type;location;lat;lon;timestamp;pressure;altitude;pressure_sealevel;temperature;humidity
15272;BME280;7737;51.578;7.268;2023-07-20T00:01:04;100835.25;;;17.61;100.00
15272;BME280;7737;51.578;7.268;2023-07-20T00:03:30;100836.59;;;17.67;100.00
15272;BME280;7737;51.578;7.268;2023-07-20T00:05:57;100836.13;;;17.73;100.00
15272;BME280;7737;51.578;7.268;2023-07-20T00:08:24;100842.97;;;17.77;100.00
15272;BME280;7737;51.578;7.268;2023-07-20T00:10:50;100833.44;;;17.73;100.00
15272;BME280;7737;51.578;7.268;2023-07-20T00:13:18;100830.75;;;17.73;100.00
15272;BME280;7737;51.578;7.268;2023-07-20T00:15:46;100835.19;;;17.74;100.00
15272;BME280;7737;51.578;7.268;2023-07-20T00:18:14;100835.44;;;17.82;100.00
15272;BME280;7737;51.578;7.268;2023-07-20T00:20:40;100826.16;;;17.86;100.00
15272;BME280;7737;51.578;7.268;2023-07-20T00:23:07;100833.00;;;17.79;100.00
15272;BME280;7737;51.578;7.268;2023-07-20T00:25:34;100826.63;;;17.80;100.00
15272;BME280;7737;51.578;7.268;2023-07-20T00:28:01;100830.91;;;17.71;100.00
15272;BME280;7737;51.578;7.268;2023-07-20T00:30:29;100827.34;;;17.71;100.00
15272;BME280;7737;51.578;7.268;2023-07-20T00:32:55;100819.78;;;17.76;100.00
15272;BME280;7737;51.578;7.268;2023-07-20T00:35:22;100812.81;;;17.73;100.00
15272;BME280;7737;51.578;7.268;2023-07-20T00:37:48;100814.50;;;17.63;100.00
15272;BME280;7737;51.578;7.268;2023-07-20T00:40:15;100815.09;;;17.67;100.00
15272;BME280;7737;51.578;7.268;2023-07-20T00:42:43;100813.41;;;17.66;100.00
15272;BME280;7737;51.578;7.268;2023-07-20T00:45:10;100813.41;;;17.66;100.00
15272;BME280;7737;51.578;7.268;2023-07-20T00:47:37;100818.78;;;17.66;100.00
15272;BME280;7737;51.578;7.268;2023-07-20T00:50:05;100813.75;;;17.72;100.00
15272;BME280;7737;51.578;7.268;2023-07-20T00:52:33;100817.19;;;17.63;100.00
15272;BME280;7737;51.578;7.268;2023-07-20T00:55:00;100813.03;;;17.70;100.00
15272;BME280;7737;51.578;7.268;2023-07-20T00:57:27;100810.81;;;17.64;100.00
15272;BME280;7737;51.578;7.268;2023-07-20T00:59:54;100814.88;;;17.70;100.00
15272;BME280;7737;51.578;7.268;2023-07-20T01:02:20;100804.56;;;17.63;100.00
15272;BME280;7737;51.578;7.268;2023-07-20T01:04:48;100810.81;;;17.64;100.00
15272;BME280;7737;51.578;7.268;2023-07-20T01:07:21;100806.31;;;17.64;100.00
15272;BME280;7737;51.578;7.268;2023-07-20T01:09:58;100811.69;;;17.64;100.00
15272;BME280;7737;51.578;7.268;2023-07-20T01:12:31;100818.16;;;17.62;100.00
15272;BME280;7737;51.578;7.268;2023-07-20T01:14:59;100804.84;;;17.60;100.00
15272;BME280;7737;51.578;7.268;2023-07-20T01:17:26;100810.72;;;17.66;100.00
15272;BME280;7737;51.578;7.268;2023-07-20T01:19:54;100800.28;;;17.61;100.00
15272;BME280;7737;51.578;7.268;2023-07-20T01:22:38;100808.13;;;17.64;100.00
15272;BME280;7737;51.578;7.268;2023-07-20T01:25:21;100808.13;;;17.64;100.00
15272;BME280;7737;51.578;7.268;2023-07-20T01:28:20;100809.72;;;17.67;100.00
15272;BME280;7737;51.578;7.268;2023-07-20T01:30:56;100802.66;;;17.66;100.00
15272;BME280;7737;51.578;7.268;2023-07-20T01:33:28;100805.06;;;17.57;100.00
15272;BME280;7737;51.578;7.268;2023-07-20T01:35:57;100803.16;;;17.71;100.00
15272;BME280;7737;51.578;7.268;2023-07-20T01:38:25;100802.28;;;17.70;100.00
15272;BME280;7737;51.578;7.268;2023-07-20T01:40:52;100804.34;;;17.67;100.00
15272;BME280;7737;51.578;7.268;2023-07-20T01:43:19;100801.66;;;17.67;100.00
15272;BME280;7737;51.578;7.268;2023-07-20T01:45:46;100788.94;;;17.57;100.00
15272;BME280;7737;51.578;7.268;2023-07-20T01:48:12;100792.06;;;17.51;100.00
15272;BME280;7737;51.578;7.268;2023-07-20T01:50:40;100792.13;;;17.62;100.00
15272;BME280;7737;51.578;7.268;2023-07-20T01:53:07;100796.94;;;17.46;100.00
15272;BME280;7737;51.578;7.268;2023-07-20T01:55:33;100805.50;;;17.51;100.00
15272;BME280;7737;51.578;7.268;2023-07-20T01:58:00;100809.38;;;17.47;100.00
15272;BME280;7737;51.578;7.268;2023-07-20T02:00:27;100801.59;;;17.44;100.00
15272;BME280;7737;51.578;7.268;2023-07-20T02:02:53;100797.03;;;17.34;100.00
15272;BME280;7737;51.578;7.268;2023-07-20T02:05:20;100804.13;;;17.46;100.00
15272;BME280;7737;51.578;7.268;2023-07-20T02:07:48;100789.34;;;17.40;100.00
15272;BME280;7737;51.578;7.268;2023-07-20T02:10:15;100786.19;;;17.46;100.00
15272;BME280;7737;51.578;7.268;2023-07-20T02:12:42;100790.06;;;17.42;100.00
15272;BME280;7737;51.578;7.268;2023-07-20T02:15:10;100783.91;;;17.29;100.00
15272;BME280;7737;51.578;7.268;2023-07-20T02:17:38;100795.69;;;16.81;100.00
15272;BME280;7737;51.578;7.268;2023-07-20T02:20:07;100809.09;;;16.81;100.00
15272;BME280;7737;51.578;7.268;2023-07-20T02:22:35;100816.19;;;16.82;100.00
15272;BME280;7737;51.578;7.268;2023-07-20T02:25:03;100810.88;;;16.93;100.00
15272;BME280;7737;51.578;7.268;2023-07-20T02:27:30;100813.28;;;16.85;100.00
15272;BME280;7737;51.578;7.268;2023-07-20T02:29:57;100819.50;;;17.09;100.00
15272;BME280;7737;51.578;7.268;2023-07-20T02:32:23;100825.56;;;17.00;100.00
15272;BME280;7737;51.578;7.268;2023-07-20T02:34:50;100830.47;;;17.06;100.00
15272;BME280;7737;51.578;7.268;2023-07-20T02:37:16;100826.63;;;16.97;100.00
15272;BME280;7737;51.578;7.268;2023-07-20T02:39:43;100831.50;;;16.92;100.00
15272;BME280;7737;51.578;7.268;2023-07-20T02:42:11;100839.63;;;17.03;100.00
15272;BME280;7737;51.578;7.268;2023-07-20T02:44:38;100841.22;;;17.06;100.00
15272;BME280;7737;51.578;7.268;2023-07-20T02:47:05;100836.88;;;17.16;100.00
15272;BME280;7737;51.578;7.268;2023-07-20T02:49:32;100836.59;;;17.08;100.00
15272;BME280;7737;51.578;7.268;2023-07-20T02:51:58;100841.91;;;16.97;100.00
15272;BME280;7737;51.578;7.268;2023-07-20T02:54:25;100844.03;;;16.81;100.00
15272;BME280;7737;51.578;7.268;2023-07-20T02:56:51;100850.81;;;16.61;100.00
15272;BME280;7737;51.578;7.268;2023-07-20T02:59:20;100851.25;;;16.55;100.00
15272;BME280;7737;51.578;7.268;2023-07-20T03:01:46;100849.88;;;16.62;100.00
15272;BME280;7737;51.578;7.268;2023-07-20T03:04:13;100847.19;;;16.62;100.00
15272;BME280;7737;51.578;7.268;2023-07-20T03:06:39;100861.34;;;16.52;100.00
15272;BME280;7737;51.578;7.268;2023-07-20T03:09:06;100863.25;;;16.50;100.00
15272;BME280;7737;51.578;7.268;2023-07-20T03:11:34;100868.66;;;16.62;100.00
15272;BME280;7737;51.578;7.268;2023-07-20T03:14:01;100868.88;;;16.59;100.00
15272;BME280;7737;51.578;7.268;2023-07-20T03:16:29;100872.50;;;16.45;100.00
15272;BME280;7737;51.578;7.268;2023-07-20T03:18:58;100863.50;;;16.47;100.00
15272;BME280;7737;51.578;7.268;2023-07-20T03:21:24;100865.84;;;16.64;100.00
15272;BME280;7737;51.578;7.268;2023-07-20T03:23:51;100870.16;;;16.54;100.00
15272;BME280;7737;51.578;7.268;2023-07-20T03:26:17;100878.09;;;16.55;100.00
15272;BME280;7737;51.578;7.268;2023-07-20T03:28:44;100879.69;;;16.58;100.00
15272;BME280;7737;51.578;7.268;2023-07-20T03:31:11;100873.38;;;16.59;100.00
15272;BME280;7737;51.578;7.268;2023-07-20T03:33:38;100863.06;;;16.65;100.00
15272;BME280;7737;51.578;7.268;2023-07-20T03:36:05;100865.84;;;16.64;100.00
15272;BME280;7737;51.578;7.268;2023-07-20T03:38:32;100861.22;;;16.66;100.00
15272;BME280;7737;51.578;7.268;2023-07-20T03:40:59;100864.69;;;16.68;100.00
15272;BME280;7737;51.578;7.268;2023-07-20T03:43:27;100863.91;;;16.66;100.00
15272;BME280;7737;51.578;7.268;2023-07-20T03:45:54;100866.25;;;16.83;100.00
15272;BME280;7737;51.578;7.268;2023-07-20T03:48:23;100865.41;;;16.70;100.00
15272;BME280;7737;51.578;7.268;2023-07-20T03:50:52;100873.03;;;16.76;100.00
15272;BME280;7737;51.578;7.268;2023-07-20T03:53:19;100873.78;;;16.78;100.00
15272;BME280;7737;51.578;7.268;2023-07-20T03:55:47;100874.00;;;16.75;100.00
15272;BME280;7737;51.578;7.268;2023-07-20T03:58:14;100880.84;;;16.79;100.00
15272;BME280;7737;51.578;7.268;2023-07-20T04:00:44;100884.50;;;16.78;100.00
15272;BME280;7737;51.578;7.268;2023-07-20T04:03:10;100887.81;;;16.81;100.00
15272;BME280;7737;51.578;7.268;2023-07-20T04:05:37;100885.69;;;16.74;100.00
15272;BME280;7737;51.578;7.268;2023-07-20T04:08:05;100884.28;;;16.81;100.00
15272;BME280;7737;51.578;7.268;2023-07-20T04:10:32;100897.72;;;16.81;100.00
15272;BME280;7737;51.578;7.268;2023-07-20T04:13:00;100891.50;;;16.55;100.00
15272;BME280;7737;51.578;7.268;2023-07-20T04:15:26;100896.75;;;16.69;100.00
15272;BME280;7737;51.578;7.268;2023-07-20T04:17:53;100901.06;;;16.72;100.00
15272;BME280;7737;51.578;7.268;2023-07-20T04:20:20;100899.13;;;16.49;100.00
15272;BME280;7737;51.578;7.268;2023-07-20T04:22:47;100889.91;;;16.65;100.00
15272;BME280;7737;51.578;7.268;2023-07-20T04:25:16;100895.78;;;16.83;100.00
15272;BME280;7737;51.578;7.268;2023-07-20T04:27:42;100904.47;;;16.86;100.00
15272;BME280;7737;51.578;7.268;2023-07-20T04:30:10;100902.69;;;16.62;100.00
15272;BME280;7737;51.578;7.268;2023-07-20T04:32:37;100909.47;;;16.55;100.00
15272;BME280;7737;51.578;7.268;2023-07-20T04:35:09;100913.72;;;16.44;100.00
15272;BME280;7737;51.578;7.268;2023-07-20T04:37:36;100906.44;;;16.47;100.00
15272;BME280;7737;51.578;7.268;2023-07-20T04:40:03;100909.56;;;16.40;100.00
15272;BME280;7737;51.578;7.268;2023-07-20T04:42:31;100913.06;;;16.28;100.00
15272;BME280;7737;51.578;7.268;2023-07-20T04:44:58;100921.69;;;16.46;100.00
15272;BME280;7737;51.578;7.268;2023-07-20T04:47:24;100924.44;;;16.44;100.00
15272;BME280;7737;51.578;7.268;2023-07-20T04:49:51;100918.88;;;16.60;100.00
15272;BME280;7737;51.578;7.268;2023-07-20T04:52:17;100926.94;;;16.60;100.00
15272;BME280;7737;51.578;7.268;2023-07-20T04:54:44;100928.25;;;16.55;100.00
15272;BME280;7737;51.578;7.268;2023-07-20T04:57:11;100930.28;;;16.64;100.00
15272;BME280;7737;51.578;7.268;2023-07-20T04:59:39;100932.66;;;16.56;100.00
15272;BME280;7737;51.578;7.268;2023-07-20T05:02:06;100940.78;;;16.29;100.00
15272;BME280;7737;51.578;7.268;2023-07-20T05:04:32;100937.56;;;16.49;100.00
15272;BME280;7737;51.578;7.268;2023-07-20T05:06:59;100944.38;;;16.55;100.00
15272;BME280;7737;51.578;7.268;2023-07-20T05:09:26;100939.41;;;16.36;100.00
15272;BME280;7737;51.578;7.268;2023-07-20T05:11:53;100946.66;;;16.34;100.00
15272;BME280;7737;51.578;7.268;2023-07-20T05:14:19;100951.91;;;15.98;100.00
15272;BME280;7737;51.578;7.268;2023-07-20T05:16:50;100949.41;;;15.95;100.00
15272;BME280;7737;51.578;7.268;2023-07-20T05:19:16;100952.25;;;16.06;100.00
15272;BME280;7737;51.578;7.268;2023-07-20T05:21:43;100952.03;;;16.21;100.00
15272;BME280;7737;51.578;7.268;2023-07-20T05:24:10;100948.69;;;16.05;100.00
15272;BME280;7737;51.578;7.268;2023-07-20T05:26:37;100959.97;;;16.10;100.00
15272;BME280;7737;51.578;7.268;2023-07-20T05:29:04;100968.06;;;16.35;100.00
15272;BME280;7737;51.578;7.268;2023-07-20T05:31:30;100958.13;;;16.11;100.00
15272;BME280;7737;51.578;7.268;2023-07-20T05:33:59;100961.81;;;16.22;100.00
15272;BME280;7737;51.578;7.268;2023-07-20T05:36:25;100965.66;;;16.18;100.00
15272;BME280;7737;51.578;7.268;2023-07-20T05:38:52;100964.38;;;16.11;100.00
15272;BME280;7737;51.578;7.268;2023-07-20T05:41:18;100968.06;;;16.35;100.00
15272;BME280;7737;51.578;7.268;2023-07-20T05:43:46;100975.44;;;16.19;100.00
15272;BME280;7737;51.578;7.268;2023-07-20T05:46:12;100972.22;;;16.14;100.00
15272;BME280;7737;51.578;7.268;2023-07-20T05:48:39;100973.53;;;16.47;100.00
15272;BME280;7737;51.578;7.268;2023-07-20T05:51:07;100979.75;;;16.34;100.00
15272;BME280;7737;51.578;7.268;2023-07-20T05:53:35;100976.13;;;16.61;100.00
15272;BME280;7737;51.578;7.268;2023-07-20T05:56:01;100979.13;;;16.43;100.00
15272;BME280;7737;51.578;7.268;2023-07-20T05:58:28;100980.06;;;16.42;100.00
15272;BME280;7737;51.578;7.268;2023-07-20T06:00:54;100980.09;;;16.80;100.00
15272;BME280;7737;51.578;7.268;2023-07-20T06:03:21;100981.34;;;17.00;100.00
15272;BME280;7737;51.578;7.268;2023-07-20T06:05:48;100972.44;;;16.99;100.00
15272;BME280;7737;51.578;7.268;2023-07-20T06:08:16;100972.34;;;16.88;100.00
15272;BME280;7737;51.578;7.268;2023-07-20T06:10:43;100976.34;;;16.83;100.00
15272;BME280;7737;51.578;7.268;2023-07-20T06:13:09;100977.06;;;16.85;100.00
15272;BME280;7737;51.578;7.268;2023-07-20T06:15:36;100977.69;;;17.01;100.00
15272;BME280;7737;51.578;7.268;2023-07-20T06:18:04;100979.13;;;17.30;100.00
15272;BME280;7737;51.578;7.268;2023-07-20T06:20:30;100975.00;;;17.37;100.00
15272;BME280;7737;51.578;7.268;2023-07-20T06:22:57;100972.66;;;16.84;100.00
15272;BME280;7737;51.578;7.268;2023-07-20T06:25:25;100974.34;;;17.46;100.00
15272;BME280;7737;51.578;7.268;2023-07-20T06:27:52;100970.59;;;17.00;100.00
15272;BME280;7737;51.578;7.268;2023-07-20T06:30:19;100973.09;;;17.39;100.00
15272;BME280;7737;51.578;7.268;2023-07-20T06:32:46;100971.28;;;17.27;100.00
15272;BME280;7737;51.578;7.268;2023-07-20T06:35:12;100968.25;;;17.68;100.00
15272;BME280;7737;51.578;7.268;2023-07-20T06:37:39;100976.03;;;17.47;100.00
15272;BME280;7737;51.578;7.268;2023-07-20T06:40:07;100977.88;;;17.23;100.00
15272;BME280;7737;51.578;7.268;2023-07-20T06:42:36;100971.69;;;16.85;100.00
15272;BME280;7737;51.578;7.268;2023-07-20T06:45:03;100968.63;;;17.15;100.00
15272;BME280;7737;51.578;7.268;2023-07-20T06:47:29;100969.44;;;16.91;100.00
15272;BME280;7737;51.578;7.268;2023-07-20T06:49:56;100965.28;;;17.47;100.00
15272;BME280;7737;51.578;7.268;2023-07-20T06:52:23;100967.75;;;17.50;100.00
15272;BME280;7737;51.578;7.268;2023-07-20T06:54:49;100959.75;;;17.38;100.00
15272;BME280;7737;51.578;7.268;2023-07-20T06:57:16;100954.78;;;17.44;100.00
15272;BME280;7737;51.578;7.268;2023-07-20T06:59:44;100960.84;;;16.99;100.00
15272;BME280;7737;51.578;7.268;2023-07-20T07:02:11;100957.41;;;17.33;100.00
15272;BME280;7737;51.578;7.268;2023-07-20T07:04:37;100958.13;;;17.12;100.00
15272;BME280;7737;51.578;7.268;2023-07-20T07:07:04;100958.59;;;17.29;100.00
15272;BME280;7737;51.578;7.268;2023-07-20T07:09:31;100962.19;;;17.17;100.00
15272;BME280;7737;51.578;7.268;2023-07-20T07:11:57;100958.25;;;17.10;100.00
15272;BME280;7737;51.578;7.268;2023-07-20T07:14:24;100962.47;;;16.89;100.00
15272;BME280;7737;51.578;7.268;2023-07-20T07:16:52;100968.69;;;17.02;100.00
15272;BME280;7737;51.578;7.268;2023-07-20T07:19:19;100966.69;;;17.17;100.00
15272;BME280;7737;51.578;7.268;2023-07-20T07:21:45;100964.75;;;17.19;100.00
15272;BME280;7737;51.578;7.268;2023-07-20T07:24:12;100961.75;;;17.23;100.00
15272;BME280;7737;51.578;7.268;2023-07-20T07:26:39;100951.66;;;17.74;100.00
15272;BME280;7737;51.578;7.268;2023-07-20T07:29:05;100967.66;;;17.52;100.00
15272;BME280;7737;51.578;7.268;2023-07-20T07:31:33;100960.03;;;17.93;100.00
15272;BME280;7737;51.578;7.268;2023-07-20T07:34:01;100965.50;;;17.81;100.00
15272;BME280;7737;51.578;7.268;2023-07-20T07:36:28;100964.94;;;17.64;100.00
15272;BME280;7737;51.578;7.268;2023-07-20T07:38:55;100966.66;;;17.66;100.00
15272;BME280;7737;51.578;7.268;2023-07-20T07:41:21;100974.88;;;17.75;100.00
15272;BME280;7737;51.578;7.268;2023-07-20T07:43:48;100968.94;;;17.83;100.00
15272;BME280;7737;51.578;7.268;2023-07-20T07:46:15;100975.69;;;17.64;100.00
15272;BME280;7737;51.578;7.268;2023-07-20T07:48:42;100977.34;;;17.54;100.00
15272;BME280;7737;51.578;7.268;2023-07-20T07:51:10;100978.81;;;17.58;100.00
15272;BME280;7737;51.578;7.268;2023-07-20T07:53:37;100973.97;;;17.63;100.00
15272;BME280;7737;51.578;7.268;2023-07-20T07:56:06;100978.59;;;17.61;100.00
15272;BME280;7737;51.578;7.268;2023-07-20T07:58:33;100968.03;;;17.71;100.00
15272;BME280;7737;51.578;7.268;2023-07-20T08:01:00;100975.13;;;17.72;100.00
15272;BME280;7737;51.578;7.268;2023-07-20T08:03:27;100971.91;;;17.67;100.00
15272;BME280;7737;51.578;7.268;2023-07-20T08:05:54;100978.25;;;17.66;100.00
15272;BME280;7737;51.578;7.268;2023-07-20T08:08:23;100966.47;;;18.14;100.00
15272;BME280;7737;51.578;7.268;2023-07-20T08:10:52;100963.91;;;18.48;100.00
15272;BME280;7737;51.578;7.268;2023-07-20T08:13:19;100961.75;;;18.40;100.00
15272;BME280;7737;51.578;7.268;2023-07-20T08:15:49;100966.00;;;18.55;100.00
15272;BME280;7737;51.578;7.268;2023-07-20T08:18:15;100970.88;;;18.61;100.00
15272;BME280;7737;51.578;7.268;2023-07-20T08:20:43;100970.19;;;18.36;100.00
15272;BME280;7737;51.578;7.268;2023-07-20T08:23:10;100971.41;;;18.66;100.00
15272;BME280;7737;51.578;7.268;2023-07-20T08:25:38;100965.22;;;18.42;100.00
15272;BME280;7737;51.578;7.268;2023-07-20T08:28:09;100973.06;;;18.56;100.00
15272;BME280;7737;51.578;7.268;2023-07-20T08:30:40;100970.38;;;18.56;100.00
15272;BME280;7737;51.578;7.268;2023-07-20T08:33:07;100970.28;;;19.02;100.00
15272;BME280;7737;51.578;7.268;2023-07-20T08:35:34;100961.53;;;19.32;100.00
15272;BME280;7737;51.578;7.268;2023-07-20T08:38:00;100956.56;;;18.94;100.00
15272;BME280;7737;51.578;7.268;2023-07-20T08:40:27;100963.06;;;18.80;100.00
15272;BME280;7737;51.578;7.268;2023-07-20T08:42:56;100961.25;;;18.24;100.00
15272;BME280;7737;51.578;7.268;2023-07-20T08:45:25;100945.59;;;18.40;100.00
15272;BME280;7737;51.578;7.268;2023-07-20T08:47:54;100945.50;;;18.42;100.00
15272;BME280;7737;51.578;7.268;2023-07-20T08:50:22;100956.94;;;18.67;100.00
15272;BME280;7737;51.578;7.268;2023-07-20T08:52:51;100963.41;;;19.09;100.00
15272;BME280;7737;51.578;7.268;2023-07-20T08:55:19;100941.88;;;18.87;100.00
15272;BME280;7737;51.578;7.268;2023-07-20T08:57:46;100952.59;;;19.42;100.00
15272;BME280;7737;51.578;7.268;2023-07-20T09:00:19;100943.09;;;18.83;100.00
15272;BME280;7737;51.578;7.268;2023-07-20T09:02:48;100945.06;;;18.81;100.00
15272;BME280;7737;51.578;7.268;2023-07-20T09:05:15;100947.59;;;19.16;100.00
15272;BME280;7737;51.578;7.268;2023-07-20T09:07:42;100943.88;;;19.28;100.00
15272;BME280;7737;51.578;7.268;2023-07-20T09:10:09;100939.38;;;19.71;100.00
15272;BME280;7737;51.578;7.268;2023-07-20T09:12:37;100919.16;;;19.23;100.00
15272;BME280;7737;51.578;7.268;2023-07-20T09:15:05;100933.91;;;19.08;100.00
15272;BME280;7737;51.578;7.268;2023-07-20T09:17:34;100940.72;;;19.23;100.00
15272;BME280;7737;51.578;7.268;2023-07-20T09:20:03;100937.97;;;19.56;100.00
15272;BME280;7737;51.578;7.268;2023-07-20T09:22:33;100945.47;;;19.53;100.00
15272;BME280;7737;51.578;7.268;2023-07-20T09:25:00;100927.44;;;19.53;100.00
15272;BME280;7737;51.578;7.268;2023-07-20T09:27:34;100920.22;;;19.54;100.00
15272;BME280;7737;51.578;7.268;2023-07-20T09:30:03;100917.75;;;20.03;100.00
15272;BME280;7737;51.578;7.268;2023-07-20T09:32:30;100915.25;;;19.90;100.00
15272;BME280;7737;51.578;7.268;2023-07-20T09:34:58;100904.38;;;20.73;100.00
15272;BME280;7737;51.578;7.268;2023-07-20T09:37:25;100885.72;;;19.57;100.00
15272;BME280;7737;51.578;7.268;2023-07-20T09:39:52;100902.03;;;20.29;100.00
15272;BME280;7737;51.578;7.268;2023-07-20T09:42:19;100889.72;;;20.66;100.00
15272;BME280;7737;51.578;7.268;2023-07-20T09:44:47;100898.25;;;20.71;100.00
15272;BME280;7737;51.578;7.268;2023-07-20T09:47:21;100904.06;;;20.57;100.00
15272;BME280;7737;51.578;7.268;2023-07-20T09:49:48;100911.75;;;19.47;100.00
15272;BME280;7737;51.578;7.268;2023-07-20T09:52:16;100921.69;;;19.47;100.00
15272;BME280;7737;51.578;7.268;2023-07-20T09:54:44;100916.41;;;19.56;100.00
15272;BME280;7737;51.578;7.268;2023-07-20T09:57:12;100902.63;;;20.12;100.00
15272;BME280;7737;51.578;7.268;2023-07-20T09:59:39;100874.97;;;20.19;100.00
15272;BME280;7737;51.578;7.268;2023-07-20T10:02:18;100879.16;;;21.03;100.00
15272;BME280;7737;51.578;7.268;2023-07-20T10:04:46;100848.78;;;21.20;100.00
15272;BME280;7737;51.578;7.268;2023-07-20T10:07:13;100844.09;;;21.12;100.00
15272;BME280;7737;51.578;7.268;2023-07-20T10:09:43;100832.66;;;20.99;100.00
15272;BME280;7737;51.578;7.268;2023-07-20T10:12:11;100824.69;;;20.58;98.45
15272;BME280;7737;51.578;7.268;2023-07-20T10:14:41;100808.97;;;19.82;94.66
15272;BME280;7737;51.578;7.268;2023-07-20T10:17:11;100854.09;;;20.21;100.00
15272;BME280;7737;51.578;7.268;2023-07-20T10:19:42;100836.63;;;20.55;99.22
15272;BME280;7737;51.578;7.268;2023-07-20T10:22:15;100801.53;;;21.34;93.75
15272;BME280;7737;51.578;7.268;2023-07-20T10:24:46;100827.84;;;21.32;96.51
15272;BME280;7737;51.578;7.268;2023-07-20T10:27:15;100809.41;;;20.87;93.74
15272;BME280;7737;51.578;7.268;2023-07-20T10:29:42;100825.91;;;20.84;94.68
15272;BME280;7737;51.578;7.268;2023-07-20T10:32:09;100828.91;;;20.41;93.07
15272;BME280;7737;51.578;7.268;2023-07-20T10:34:36;100826.75;;;20.75;95.11
15272;BME280;7737;51.578;7.268;2023-07-20T10:37:03;100821.50;;;22.17;95.48
15272;BME280;7737;51.578;7.268;2023-07-20T10:39:32;100796.09;;;21.53;90.92
15272;BME280;7737;51.578;7.268;2023-07-20T10:42:06;100789.22;;;21.87;89.16
15272;BME280;7737;51.578;7.268;2023-07-20T10:44:33;100782.53;;;21.91;88.13
15272;BME280;7737;51.578;7.268;2023-07-20T10:47:00;100762.78;;;21.62;82.72
15272;BME280;7737;51.578;7.268;2023-07-20T10:49:28;100759.28;;;21.98;81.72
15272;BME280;7737;51.578;7.268;2023-07-20T10:51:59;100790.63;;;22.01;84.85
15272;BME280;7737;51.578;7.268;2023-07-20T10:54:46;100790.81;;;23.08;86.27
15272;BME280;7737;51.578;7.268;2023-07-20T10:57:30;100768.91;;;22.74;82.86
15272;BME280;7737;51.578;7.268;2023-07-20T11:00:11;100724.69;;;22.19;75.60
15272;BME280;7737;51.578;7.268;2023-07-20T11:02:48;100723.50;;;23.47;75.13
15272;BME280;7737;51.578;7.268;2023-07-20T11:05:34;100753.78;;;23.86;77.44
15272;BME280;7737;51.578;7.268;2023-07-20T11:08:03;100760.22;;;23.59;78.20
15272;BME280;7737;51.578;7.268;2023-07-20T11:10:30;100732.53;;;22.50;74.31
15272;BME280;7737;51.578;7.268;2023-07-20T11:13:18;100769.03;;;23.79;79.06
15272;BME280;7737;51.578;7.268;2023-07-20T11:15:46;100707.41;;;22.75;70.42
15272;BME280;7737;51.578;7.268;2023-07-20T11:18:13;100752.88;;;23.51;76.42
15272;BME280;7737;51.578;7.268;2023-07-20T11:20:40;100739.28;;;23.69;75.85
15272;BME280;7737;51.578;7.268;2023-07-20T11:23:08;100686.84;;;23.25;69.09
15272;BME280;7737;51.578;7.268;2023-07-20T11:25:39;100704.22;;;23.32;69.41
15272;BME280;7737;51.578;7.268;2023-07-20T11:28:10;100693.28;;;23.24;68.41
15272;BME280;7737;51.578;7.268;2023-07-20T11:30:41;100703.41;;;23.91;71.13
15272;BME280;7737;51.578;7.268;2023-07-20T11:33:08;100710.09;;;23.71;69.37
15272;BME280;7737;51.578;7.268;2023-07-20T11:35:35;100716.88;;;22.43;69.93
15272;BME280;7737;51.578;7.268;2023-07-20T11:38:03;100718.34;;;23.00;70.50
15272;BME280;7737;51.578;7.268;2023-07-20T11:40:29;100737.38;;;23.70;73.35
15272;BME280;7737;51.578;7.268;2023-07-20T11:42:56;100667.25;;;23.91;64.73
15272;BME280;7737;51.578;7.268;2023-07-20T11:45:22;100666.50;;;24.48;65.62
15272;BME280;7737;51.578;7.268;2023-07-20T11:47:50;100664.16;;;24.77;66.67
15272;BME280;7737;51.578;7.268;2023-07-20T11:50:17;100628.31;;;25.06;61.51
15272;BME280;7737;51.578;7.268;2023-07-20T11:52:44;100644.16;;;23.35;62.06
15272;BME280;7737;51.578;7.268;2023-07-20T11:55:11;100682.16;;;23.35;65.24
15272;BME280;7737;51.578;7.268;2023-07-20T11:57:38;100683.13;;;24.03;65.80
15272;BME280;7737;51.578;7.268;2023-07-20T12:00:06;100665.59;;;24.40;64.43
15272;BME280;7737;51.578;7.268;2023-07-20T12:02:37;100680.88;;;25.23;66.07
15272;BME280;7737;51.578;7.268;2023-07-20T12:05:07;100632.94;;;24.15;60.07
15272;BME280;7737;51.578;7.268;2023-07-20T12:07:36;100661.13;;;25.13;63.74
15272;BME280;7737;51.578;7.268;2023-07-20T12:10:05;100633.31;;;23.35;60.36
15272;BME280;7737;51.578;7.268;2023-07-20T12:12:32;100637.06;;;23.34;59.95
15272;BME280;7737;51.578;7.268;2023-07-20T12:15:15;100655.25;;;23.68;62.64
15272;BME280;7737;51.578;7.268;2023-07-20T12:17:43;100647.03;;;23.77;61.82
15272;BME280;7737;51.578;7.268;2023-07-20T12:20:11;100652.94;;;25.21;62.19
15272;BME280;7737;51.578;7.268;2023-07-20T12:22:39;100598.31;;;24.34;57.46
15272;BME280;7737;51.578;7.268;2023-07-20T12:25:06;100628.78;;;25.26;60.62
15272;BME280;7737;51.578;7.268;2023-07-20T12:27:35;100639.31;;;25.37;61.07
15272;BME280;7737;51.578;7.268;2023-07-20T12:30:03;100599.03;;;23.94;56.91
15272;BME280;7737;51.578;7.268;2023-07-20T12:32:30;100612.50;;;24.77;58.32
15272;BME280;7737;51.578;7.268;2023-07-20T12:34:56;100613.81;;;25.54;58.83
15272;BME280;7737;51.578;7.268;2023-07-20T12:37:26;100619.56;;;25.98;59.89
15272;BME280;7737;51.578;7.268;2023-07-20T12:39:53;100617.94;;;26.28;58.58
15272;BME280;7737;51.578;7.268;2023-07-20T12:42:20;100588.09;;;25.95;56.48
15272;BME280;7737;51.578;7.268;2023-07-20T12:44:48;100599.44;;;25.68;57.04
15272;BME280;7737;51.578;7.268;2023-07-20T12:47:16;100601.66;;;26.03;57.19
15272;BME280;7737;51.578;7.268;2023-07-20T12:49:42;100581.22;;;26.16;55.33
15272;BME280;7737;51.578;7.268;2023-07-20T12:52:10;100567.19;;;26.19;54.49
15272;BME280;7737;51.578;7.268;2023-07-20T12:54:38;100558.41;;;26.39;53.61
15272;BME280;7737;51.578;7.268;2023-07-20T12:57:05;100534.34;;;26.20;51.68